sensor_id;sensor_type;location;lat;lon;timestamp;pressure;altitude;pressure_sealevel;temperature;humidity
22181;BME280;11256;50.830;12.834;2023-04-03T00:04:31;98584.88;;;4.14;68.62
22181;BME280;11256;50.830;12.834;2023-04-03T00:09:31;98588.59;;;4.13;68.58
22181;BME280;11256;50.830;12.834;2023-04-03T00:14:32;98572.44;;;3.95;68.26
22181;BME280;11256;50.830;12.834;2023-04-03T00:19:32;98556.84;;;3.79;68.84
22181;BME280;11256;50.830;12.834;2023-04-03T00:24:32;98568.59;;;3.84;68.89
22181;BME280;11256;50.830;12.834;2023-04-03T00:29:33;98581.16;;;3.84;68.47
22181;BME280;11256;50.830;12.834;2023-04-03T00:34:33;98566.81;;;3.72;68.82
22181;BME280;11256;50.830;12.834;2023-04-03T00:39:33;98591.69;;;3.79;68.01
22181;BME280;11256;50.830;12.834;2023-04-03T00:49:35;98589.34;;;3.58;68.29
22181;BME280;11256;50.830;12.834;2023-04-03T00:54:37;98595.56;;;3.52;68.69
22181;BME280;11256;50.830;12.834;2023-04-03T00:59:51;98602.38;;;3.48;68.52
22181;BME280;11256;50.830;12.834;2023-04-03T01:04:52;98595.63;;;3.39;68.89
22181;BME280;11256;50.830;12.834;2023-04-03T01:09:55;98607.97;;;3.40;69.13
22181;BME280;11256;50.830;12.834;2023-04-03T01:14:59;98594.81;;;3.32;69.13
22181;BME280;11256;50.830;12.834;2023-04-03T01:25:33;98613.75;;;3.37;68.99
22181;BME280;11256;50.830;12.834;2023-04-03T01:30:38;98611.72;;;3.26;68.69
22181;BME280;11256;50.830;12.834;2023-04-03T01:35:41;98611.19;;;3.11;69.23
22181;BME280;11256;50.830;12.834;2023-04-03T01:40:42;98629.88;;;3.17;68.76
22181;BME280;11256;50.830;12.834;2023-04-03T01:45:43;98620.44;;;3.08;69.03
22181;BME280;11256;50.830;12.834;2023-04-03T01:50:43;98609.34;;;2.92;69.39
22181;BME280;11256;50.830;12.834;2023-04-03T01:55:44;98630.56;;;3.00;69.12
22181;BME280;11256;50.830;12.834;2023-04-03T02:00:45;98620.91;;;2.92;68.91
22181;BME280;11256;50.830;12.834;2023-04-03T02:05:45;98642.31;;;2.92;69.33
22181;BME280;11256;50.830;12.834;2023-04-03T02:10:47;98616.78;;;2.77;69.69
22181;BME280;11256;50.830;12.834;2023-04-03T02:15:49;98619.25;;;2.72;68.92
22181;BME280;11256;50.830;12.834;2023-04-03T02:20:50;98622.56;;;2.67;69.14
22181;BME280;11256;50.830;12.834;2023-04-03T02:25:51;98617.22;;;2.61;69.50
22181;BME280;11256;50.830;12.834;2023-04-03T02:30:51;98637.38;;;2.70;69.20
22181;BME280;11256;50.830;12.834;2023-04-03T02:35:53;98643.97;;;2.67;70.02
22181;BME280;11256;50.830;12.834;2023-04-03T02:41:07;98648.91;;;2.64;69.43
22181;BME280;11256;50.830;12.834;2023-04-03T02:46:08;98646.03;;;2.59;69.75
22181;BME280;11256;50.830;12.834;2023-04-03T02:51:08;98644.78;;;2.55;69.74
22181;BME280;11256;50.830;12.834;2023-04-03T02:56:09;98656.72;;;2.52;69.61
22181;BME280;11256;50.830;12.834;2023-04-03T03:01:09;98641.91;;;2.37;70.11
22181;BME280;11256;50.830;12.834;2023-04-03T03:06:12;98664.53;;;2.47;69.43
22181;BME280;11256;50.830;12.834;2023-04-03T03:11:13;98650.78;;;2.37;69.71
22181;BME280;11256;50.830;12.834;2023-04-03T03:16:14;98655.50;;;2.35;68.84
22181;BME280;11256;50.830;12.834;2023-04-03T03:21:15;98655.69;;;2.21;69.00
22181;BME280;11256;50.830;12.834;2023-04-03T03:26:15;98652.00;;;2.15;70.27
22181;BME280;11256;50.830;12.834;2023-04-03T03:31:16;98654.81;;;2.01;68.72
22181;BME280;11256;50.830;12.834;2023-04-03T03:36:16;98671.69;;;2.01;69.20
22181;BME280;11256;50.830;12.834;2023-04-03T03:41:16;98675.59;;;1.99;70.60
22181;BME280;11256;50.830;12.834;2023-04-03T03:46:18;98678.66;;;1.96;69.75
22181;BME280;11256;50.830;12.834;2023-04-03T03:51:18;98690.56;;;1.87;70.17
22181;BME280;11256;50.830;12.834;2023-04-03T03:56:19;98689.91;;;1.85;70.89
22181;BME280;11256;50.830;12.834;2023-04-03T04:01:20;98680.66;;;1.74;70.23
22181;BME280;11256;50.830;12.834;2023-04-03T04:06:23;98680.78;;;1.60;69.63
22181;BME280;11256;50.830;12.834;2023-04-03T04:11:25;98699.31;;;1.68;71.12
22181;BME280;11256;50.830;12.834;2023-04-03T04:16:28;98681.59;;;1.54;70.74
22181;BME280;11256;50.830;12.834;2023-04-03T04:21:30;98712.44;;;1.63;71.06
22181;BME280;11256;50.830;12.834;2023-04-03T04:26:31;98696.97;;;1.52;71.41
22181;BME280;11256;50.830;12.834;2023-04-03T04:31:31;98694.72;;;1.49;71.12
22181;BME280;11256;50.830;12.834;2023-04-03T04:36:32;98715.28;;;1.55;71.41
22181;BME280;11256;50.830;12.834;2023-04-03T04:41:33;98716.94;;;1.56;71.29
22181;BME280;11256;50.830;12.834;2023-04-03T04:46:36;98725.97;;;1.55;71.23
22181;BME280;11256;50.830;12.834;2023-04-03T04:51:36;98698.56;;;1.40;71.66
22181;BME280;11256;50.830;12.834;2023-04-03T04:56:37;98720.78;;;1.47;71.48
22181;BME280;11256;50.830;12.834;2023-04-03T05:01:38;98729.63;;;1.47;71.38
22181;BME280;11256;50.830;12.834;2023-04-03T05:06:44;98740.50;;;1.46;71.48
22181;BME280;11256;50.830;12.834;2023-04-03T05:11:49;98718.69;;;1.42;71.25
22181;BME280;11256;50.830;12.834;2023-04-03T05:16:51;98748.66;;;1.72;71.00
22181;BME280;11256;50.830;12.834;2023-04-03T05:21:57;98741.78;;;2.03;70.48
22181;BME280;11256;50.830;12.834;2023-04-03T05:26:57;98749.25;;;2.21;69.28
22181;BME280;11256;50.830;12.834;2023-04-03T05:31:58;98746.41;;;2.35;68.71
22181;BME280;11256;50.830;12.834;2023-04-03T05:36:59;98751.16;;;2.40;68.63
22181;BME280;11256;50.830;12.834;2023-04-03T05:42:02;98751.34;;;2.45;68.62
22181;BME280;11256;50.830;12.834;2023-04-03T05:47:03;98755.50;;;2.54;68.09
22181;BME280;11256;50.830;12.834;2023-04-03T05:52:04;98762.47;;;2.55;67.64
22181;BME280;11256;50.830;12.834;2023-04-03T05:57:06;98765.78;;;2.50;67.44
22181;BME280;11256;50.830;12.834;2023-04-03T06:02:07;98770.50;;;2.42;67.38
22181;BME280;11256;50.830;12.834;2023-04-03T06:07:13;98773.38;;;2.47;67.26
22181;BME280;11256;50.830;12.834;2023-04-03T06:12:14;98789.78;;;2.31;67.05
22181;BME280;11256;50.830;12.834;2023-04-03T06:17:15;98798.97;;;2.09;66.36
22181;BME280;11256;50.830;12.834;2023-04-03T06:22:16;98788.88;;;2.04;67.13
22181;BME280;11256;50.830;12.834;2023-04-03T06:27:16;98797.31;;;2.08;66.85
22181;BME280;11256;50.830;12.834;2023-04-03T06:32:16;98789.47;;;1.93;67.45
22181;BME280;11256;50.830;12.834;2023-04-03T06:37:19;98795.38;;;1.89;66.64
22181;BME280;11256;50.830;12.834;2023-04-03T06:42:19;98806.16;;;1.68;66.66
22181;BME280;11256;50.830;12.834;2023-04-03T06:47:27;98819.03;;;1.92;67.44
22181;BME280;11256;50.830;12.834;2023-04-03T06:52:27;98800.78;;;1.61;66.79
22181;BME280;11256;50.830;12.834;2023-04-03T06:57:28;98823.38;;;1.59;66.98
22181;BME280;11256;50.830;12.834;2023-04-03T07:02:28;98810.06;;;1.38;67.34
22181;BME280;11256;50.830;12.834;2023-04-03T07:07:29;98822.88;;;1.49;68.01
22181;BME280;11256;50.830;12.834;2023-04-03T07:12:29;98833.66;;;1.62;68.59
22181;BME280;11256;50.830;12.834;2023-04-03T07:17:30;98840.25;;;1.38;66.81
22181;BME280;11256;50.830;12.834;2023-04-03T07:22:30;98816.47;;;1.43;68.22
22181;BME280;11256;50.830;12.834;2023-04-03T07:27:31;98852.53;;;1.60;68.13
22181;BME280;11256;50.830;12.834;2023-04-03T07:32:32;98849.09;;;1.66;68.12
22181;BME280;11256;50.830;12.834;2023-04-03T07:37:32;98843.16;;;1.71;67.77
22181;BME280;11256;50.830;12.834;2023-04-03T07:42:32;98865.31;;;1.99;68.41
22181;BME280;11256;50.830;12.834;2023-04-03T07:47:33;98863.63;;;1.91;66.86
22181;BME280;11256;50.830;12.834;2023-04-03T07:52:33;98869.50;;;2.08;67.59
22181;BME280;11256;50.830;12.834;2023-04-03T07:57:33;98827.66;;;1.94;67.18
22181;BME280;11256;50.830;12.834;2023-04-03T08:02:34;98869.75;;;2.19;66.25
22181;BME280;11256;50.830;12.834;2023-04-03T08:07:36;98850.94;;;2.00;65.00
22181;BME280;11256;50.830;12.834;2023-04-03T08:12:37;98875.44;;;2.10;65.59
22181;BME280;11256;50.830;12.834;2023-04-03T08:17:37;98855.22;;;1.94;63.70
22181;BME280;11256;50.830;12.834;2023-04-03T08:22:37;98878.88;;;2.38;65.37
22181;BME280;11256;50.830;12.834;2023-04-03T08:27:38;98887.66;;;2.72;65.20
22181;BME280;11256;50.830;12.834;2023-04-03T08:32:38;98888.16;;;3.15;65.75
22181;BME280;11256;50.830;12.834;2023-04-03T08:37:39;98891.50;;;3.75;67.73
22181;BME280;11256;50.830;12.834;2023-04-03T08:43:03;98891.88;;;4.11;63.07
22181;BME280;11256;50.830;12.834;2023-04-03T08:48:35;98884.72;;;4.49;64.42
22181;BME280;11256;50.830;12.834;2023-04-03T08:53:39;98890.31;;;4.92;65.23
22181;BME280;11256;50.830;12.834;2023-04-03T08:58:48;98910.03;;;5.66;63.59
22181;BME280;11256;50.830;12.834;2023-04-03T09:03:50;98859.97;;;5.16;58.78
22181;BME280;11256;50.830;12.834;2023-04-03T09:09:13;98910.16;;;5.22;58.28
22181;BME280;11256;50.830;12.834;2023-04-03T09:24:32;98908.75;;;4.25;59.03
22181;BME280;11256;50.830;12.834;2023-04-03T09:29:36;98910.00;;;4.16;58.15
22181;BME280;11256;50.830;12.834;2023-04-03T09:34:41;98918.69;;;3.92;55.84
22181;BME280;11256;50.830;12.834;2023-04-03T09:39:52;98921.56;;;4.10;58.06
22181;BME280;11256;50.830;12.834;2023-04-03T09:45:01;98910.00;;;4.09;58.50
22181;BME280;11256;50.830;12.834;2023-04-03T09:55:15;98903.06;;;5.03;62.28
22181;BME280;11256;50.830;12.834;2023-04-03T10:00:25;98887.94;;;5.39;57.06
22181;BME280;11256;50.830;12.834;2023-04-03T10:05:39;98908.19;;;5.97;58.79
22181;BME280;11256;50.830;12.834;2023-04-03T10:10:45;98892.81;;;5.73;56.89
22181;BME280;11256;50.830;12.834;2023-04-03T10:16:09;98880.38;;;5.54;52.41
22181;BME280;11256;50.830;12.834;2023-04-03T10:21:35;98883.50;;;5.76;55.02
22181;BME280;11256;50.830;12.834;2023-04-03T10:26:48;98862.44;;;5.73;55.90
22181;BME280;11256;50.830;12.834;2023-04-03T10:37:21;98894.69;;;6.22;58.86
22181;BME280;11256;50.830;12.834;2023-04-03T10:57:59;98862.88;;;7.14;59.87
22181;BME280;11256;50.830;12.834;2023-04-03T11:03:03;98863.28;;;7.40;61.47
22181;BME280;11256;50.830;12.834;2023-04-03T11:08:13;98847.59;;;7.49;60.95
22181;BME280;11256;50.830;12.834;2023-04-03T11:13:22;98850.38;;;7.31;60.78
22181;BME280;11256;50.830;12.834;2023-04-03T11:18:37;98857.53;;;7.48;61.65
22181;BME280;11256;50.830;12.834;2023-04-03T11:23:41;98842.88;;;7.33;59.81
22181;BME280;11256;50.830;12.834;2023-04-03T11:28:41;98841.09;;;7.27;60.12
22181;BME280;11256;50.830;12.834;2023-04-03T11:34:24;98841.31;;;6.84;52.80
22181;BME280;11256;50.830;12.834;2023-04-03T11:39:21;98828.34;;;6.93;58.11
22181;BME280;11256;50.830;12.834;2023-04-03T11:44:33;98840.66;;;7.30;59.57
22181;BME280;11256;50.830;12.834;2023-04-03T11:54:59;98821.88;;;7.35;57.83
22181;BME280;11256;50.830;12.834;2023-04-03T11:59:59;98814.88;;;7.57;59.71
22181;BME280;11256;50.830;12.834;2023-04-03T12:05:27;98813.31;;;7.26;52.45
22181;BME280;11256;50.830;12.834;2023-04-03T12:10:28;98807.03;;;7.78;58.08
22181;BME280;11256;50.830;12.834;2023-04-03T12:21:01;98795.41;;;8.24;58.65
22181;BME280;11256;50.830;12.834;2023-04-03T12:26:24;98796.78;;;8.66;57.77
22181;BME280;11256;50.830;12.834;2023-04-03T12:31:36;98799.44;;;9.05;56.19
22181;BME280;11256;50.830;12.834;2023-04-03T12:41:58;98804.03;;;9.05;55.72
22181;BME280;11256;50.830;12.834;2023-04-03T12:47:18;98790.81;;;8.92;53.70
22181;BME280;11256;50.830;12.834;2023-04-03T12:52:41;98782.50;;;8.82;56.62
22181;BME280;11256;50.830;12.834;2023-04-03T12:57:44;98793.69;;;8.85;54.30
22181;BME280;11256;50.830;12.834;2023-04-03T13:02:45;98786.13;;;8.20;47.71
22181;BME280;11256;50.830;12.834;2023-04-03T13:07:58;98795.66;;;7.65;51.49
22181;BME280;11256;50.830;12.834;2023-04-03T13:13:07;98771.13;;;8.01;55.37
22181;BME280;11256;50.830;12.834;2023-04-03T13:18:29;98782.97;;;8.23;56.53
22181;BME280;11256;50.830;12.834;2023-04-03T13:23:30;98781.25;;;8.45;52.13
22181;BME280;11256;50.830;12.834;2023-04-03T13:28:32;98784.88;;;7.65;45.74
22181;BME280;11256;50.830;12.834;2023-04-03T13:33:35;98784.84;;;7.88;53.57
22181;BME280;11256;50.830;12.834;2023-04-03T13:38:39;98769.16;;;7.85;47.75
22181;BME280;11256;50.830;12.834;2023-04-03T13:43:39;98770.09;;;7.79;52.79
22181;BME280;11256;50.830;12.834;2023-04-03T13:48:43;98781.09;;;7.89;49.91
22181;BME280;11256;50.830;12.834;2023-04-03T13:53:56;98758.13;;;7.75;49.20
22181;BME280;11256;50.830;12.834;2023-04-03T13:59:03;98756.13;;;7.59;54.21
22181;BME280;11256;50.830;12.834;2023-04-03T14:04:13;98742.00;;;8.03;54.54
22181;BME280;11256;50.830;12.834;2023-04-03T14:09:16;98755.72;;;8.13;54.26
22181;BME280;11256;50.830;12.834;2023-04-03T14:14:20;98766.72;;;8.34;53.89
22181;BME280;11256;50.830;12.834;2023-04-03T14:19:30;98756.94;;;7.71;49.99
22181;BME280;11256;50.830;12.834;2023-04-03T14:24:31;98727.53;;;7.58;51.17
22181;BME280;11256;50.830;12.834;2023-04-03T14:29:32;98745.56;;;7.80;53.92
22181;BME280;11256;50.830;12.834;2023-04-03T14:34:32;98754.66;;;8.02;54.32
22181;BME280;11256;50.830;12.834;2023-04-03T14:39:32;98763.03;;;7.78;52.33
22181;BME280;11256;50.830;12.834;2023-04-03T14:44:33;98751.56;;;7.71;53.84
22181;BME280;11256;50.830;12.834;2023-04-03T14:49:33;98758.94;;;7.75;53.76
22181;BME280;11256;50.830;12.834;2023-04-03T14:54:34;98748.97;;;7.87;54.97
22181;BME280;11256;50.830;12.834;2023-04-03T14:59:36;98744.38;;;7.99;54.70
22181;BME280;11256;50.830;12.834;2023-04-03T15:04:37;98727.94;;;8.01;54.25
22181;BME280;11256;50.830;12.834;2023-04-03T15:09:37;98744.69;;;8.03;54.34
22181;BME280;11256;50.830;12.834;2023-04-03T15:14:38;98746.69;;;8.07;51.98
22181;BME280;11256;50.830;12.834;2023-04-03T15:19:38;98748.97;;;7.76;48.27
22181;BME280;11256;50.830;12.834;2023-04-03T15:24:39;98747.94;;;7.65;52.66
22181;BME280;11256;50.830;12.834;2023-04-03T15:29:41;98742.41;;;7.49;49.93
22181;BME280;11256;50.830;12.834;2023-04-03T15:34:41;98749.09;;;7.58;54.75
22181;BME280;11256;50.830;12.834;2023-04-03T15:39:42;98753.56;;;7.52;54.75
22181;BME280;11256;50.830;12.834;2023-04-03T15:44:42;98733.72;;;7.24;51.54
22181;BME280;11256;50.830;12.834;2023-04-03T15:49:42;98760.50;;;6.96;48.31
22181;BME280;11256;50.830;12.834;2023-04-03T15:54:43;98756.88;;;7.02;53.46
22181;BME280;11256;50.830;12.834;2023-04-03T15:59:43;98755.47;;;6.88;53.85
22181;BME280;11256;50.830;12.834;2023-04-03T16:04:43;98755.38;;;6.94;54.89
22181;BME280;11256;50.830;12.834;2023-04-03T16:09:44;98741.16;;;6.87;55.14
22181;BME280;11256;50.830;12.834;2023-04-03T16:14:44;98758.88;;;6.95;54.88
22181;BME280;11256;50.830;12.834;2023-04-03T16:19:45;98740.09;;;6.88;54.13
22181;BME280;11256;50.830;12.834;2023-04-03T16:24:45;98754.84;;;6.74;53.67
22181;BME280;11256;50.830;12.834;2023-04-03T16:29:45;98761.03;;;6.75;54.63
22181;BME280;11256;50.830;12.834;2023-04-03T16:34:46;98761.94;;;6.69;55.28
22181;BME280;11256;50.830;12.834;2023-04-03T16:39:46;98759.88;;;6.71;55.63
22181;BME280;11256;50.830;12.834;2023-04-03T16:44:46;98763.00;;;6.68;55.55
22181;BME280;11256;50.830;12.834;2023-04-03T16:49:47;98736.41;;;6.60;55.38
22181;BME280;11256;50.830;12.834;2023-04-03T16:54:47;98746.91;;;6.50;51.44
22181;BME280;11256;50.830;12.834;2023-04-03T16:59:47;98758.38;;;6.27;51.52
22181;BME280;11256;50.830;12.834;2023-04-03T17:04:50;98748.47;;;5.92;49.75
22181;BME280;11256;50.830;12.834;2023-04-03T17:09:51;98764.28;;;5.64;50.73
22181;BME280;11256;50.830;12.834;2023-04-03T17:14:53;98763.78;;;5.49;50.98
22181;BME280;11256;50.830;12.834;2023-04-03T17:19:54;98745.91;;;5.36;54.01
22181;BME280;11256;50.830;12.834;2023-04-03T17:24:55;98768.84;;;5.39;55.16
22181;BME280;11256;50.830;12.834;2023-04-03T17:29:56;98780.06;;;5.36;55.03
22181;BME280;11256;50.830;12.834;2023-04-03T17:34:57;98773.69;;;5.06;51.34
22181;BME280;11256;50.830;12.834;2023-04-03T17:39:57;98770.50;;;4.91;50.78
22181;BME280;11256;50.830;12.834;2023-04-03T17:44:57;98760.66;;;4.85;55.36
22181;BME280;11256;50.830;12.834;2023-04-03T17:50:00;98784.94;;;4.90;55.12
22181;BME280;11256;50.830;12.834;2023-04-03T17:55:00;98781.69;;;4.88;56.39
22181;BME280;11256;50.830;12.834;2023-04-03T18:00:00;98785.25;;;4.75;52.36
22181;BME280;11256;50.830;12.834;2023-04-03T18:05:01;98789.19;;;4.73;55.81
22181;BME280;11256;50.830;12.834;2023-04-03T18:10:02;98768.31;;;4.44;51.98
22181;BME280;11256;50.830;12.834;2023-04-03T18:15:04;98794.06;;;4.14;49.65
22181;BME280;11256;50.830;12.834;2023-04-03T18:20:05;98795.84;;;3.76;49.36
22181;BME280;11256;50.830;12.834;2023-04-03T18:25:06;98797.28;;;3.59;49.74
22181;BME280;11256;50.830;12.834;2023-04-03T18:30:10;98781.44;;;3.44;50.25
22181;BME280;11256;50.830;12.834;2023-04-03T18:35:12;98789.69;;;3.49;51.18
22181;BME280;11256;50.830;12.834;2023-04-03T18:40:12;98780.03;;;3.35;52.88
22181;BME280;11256;50.830;12.834;2023-04-03T18:45:17;98804.31;;;3.47;52.53
22181;BME280;11256;50.830;12.834;2023-04-03T18:50:20;98778.38;;;3.28;53.67
22181;BME280;11256;50.830;12.834;2023-04-03T18:55:20;98801.66;;;3.21;51.11
22181;BME280;11256;50.830;12.834;2023-04-03T19:00:21;98784.13;;;2.79;50.44
22181;BME280;11256;50.830;12.834;2023-04-03T19:05:21;98790.53;;;2.98;53.18
22181;BME280;11256;50.830;12.834;2023-04-03T19:10:23;98795.69;;;2.93;52.93
22181;BME280;11256;50.830;12.834;2023-04-03T19:15:23;98784.97;;;2.93;52.73
22181;BME280;11256;50.830;12.834;2023-04-03T19:20:24;98791.34;;;2.92;53.38
22181;BME280;11256;50.830;12.834;2023-04-03T19:25:24;98794.84;;;2.86;52.05
22181;BME280;11256;50.830;12.834;2023-04-03T19:30:25;98780.44;;;2.74;52.86
22181;BME280;11256;50.830;12.834;2023-04-03T19:35:26;98797.91;;;2.83;53.45
22181;BME280;11256;50.830;12.834;2023-04-03T19:40:27;98798.56;;;2.85;55.63
22181;BME280;11256;50.830;12.834;2023-04-03T19:45:28;98801.44;;;2.90;56.78
22181;BME280;11256;50.830;12.834;2023-04-03T19:50:29;98796.31;;;2.95;57.82
22181;BME280;11256;50.830;12.834;2023-04-03T19:55:29;98783.94;;;2.94;58.46
22181;BME280;11256;50.830;12.834;2023-04-03T20:00:31;98803.72;;;3.12;58.81
22181;BME280;11256;50.830;12.834;2023-04-03T20:05:31;98793.84;;;3.13;58.83
22181;BME280;11256;50.830;12.834;2023-04-03T20:10:32;98788.50;;;3.13;59.04
22181;BME280;11256;50.830;12.834;2023-04-03T20:15:37;98780.25;;;3.08;59.50
22181;BME280;11256;50.830;12.834;2023-04-03T20:20:40;98798.78;;;3.22;59.59
22181;BME280;11256;50.830;12.834;2023-04-03T20:25:42;98791.38;;;3.24;59.24
22181;BME280;11256;50.830;12.834;2023-04-03T20:30:45;98775.69;;;3.15;59.46
22181;BME280;11256;50.830;12.834;2023-04-03T20:35:47;98800.00;;;3.26;59.52
22181;BME280;11256;50.830;12.834;2023-04-03T20:40:48;98789.31;;;3.26;59.62
22181;BME280;11256;50.830;12.834;2023-04-03T20:45:48;98794.22;;;3.29;59.85
22181;BME280;11256;50.830;12.834;2023-04-03T20:50:49;98789.72;;;3.30;59.89
22181;BME280;11256;50.830;12.834;2023-04-03T20:55:59;98782.28;;;3.32;59.86
22181;BME280;11256;50.830;12.834;2023-04-03T21:01:00;98774.88;;;3.34;59.76
22181;BME280;11256;50.830;12.834;2023-04-03T21:21:39;98770.13;;;3.36;59.51
22181;BME280;11256;50.830;12.834;2023-04-03T21:26:40;98774.03;;;3.40;59.70
22181;BME280;11256;50.830;12.834;2023-04-03T21:31:54;98768.69;;;3.40;59.76
22181;BME280;11256;50.830;12.834;2023-04-03T21:37:05;98753.47;;;3.34;59.68
22181;BME280;11256;50.830;12.834;2023-04-03T21:42:06;98763.09;;;3.48;59.70
22181;BME280;11256;50.830;12.834;2023-04-03T21:47:07;98758.38;;;3.50;59.33
22181;BME280;11256;50.830;12.834;2023-04-03T21:52:07;98743.53;;;3.41;59.32
22181;BME280;11256;50.830;12.834;2023-04-03T21:57:08;98745.59;;;3.45;59.51
22181;BME280;11256;50.830;12.834;2023-04-03T22:02:11;98748.88;;;3.54;59.34
22181;BME280;11256;50.830;12.834;2023-04-03T22:07:12;98734.06;;;3.45;59.05
22181;BME280;11256;50.830;12.834;2023-04-03T22:12:12;98750.53;;;3.55;59.34
22181;BME280;11256;50.830;12.834;2023-04-03T22:17:12;98749.31;;;3.51;59.39
22181;BME280;11256;50.830;12.834;2023-04-03T22:22:13;98744.78;;;3.51;59.01
22181;BME280;11256;50.830;12.834;2023-04-03T22:27:14;98732.63;;;3.36;59.30
22181;BME280;11256;50.830;12.834;2023-04-03T22:32:14;98736.53;;;3.40;59.30
22181;BME280;11256;50.830;12.834;2023-04-03T22:37:15;98734.50;;;3.35;58.95
22181;BME280;11256;50.830;12.834;2023-04-03T22:42:15;98740.47;;;3.37;59.25
22181;BME280;11256;50.830;12.834;2023-04-03T22:47:15;98741.72;;;3.35;59.34
22181;BME280;11256;50.830;12.834;2023-04-03T22:52:17;98719.28;;;3.23;59.44
22181;BME280;11256;50.830;12.834;2023-04-03T22:57:17;98730.59;;;3.31;59.27
22181;BME280;11256;50.830;12.834;2023-04-03T23:02:18;98727.50;;;3.28;59.86
22181;BME280;11256;50.830;12.834;2023-04-03T23:07:18;98707.53;;;3.17;59.59
22181;BME280;11256;50.830;12.834;2023-04-03T23:12:18;98730.38;;;3.26;59.64
22181;BME280;11256;50.830;12.834;2023-04-03T23:17:19;98720.31;;;3.22;59.38
22181;BME280;11256;50.830;12.834;2023-04-03T23:22:19;98727.31;;;3.23;59.44
22181;BME280;11256;50.830;12.834;2023-04-03T23:27:20;98720.09;;;3.23;59.34
22181;BME280;11256;50.830;12.834;2023-04-03T23:32:20;98727.31;;;3.23;59.64
22181;BME280;11256;50.830;12.834;2023-04-03T23:37:20;98728.34;;;3.22;59.48
22181;BME280;11256;50.830;12.834;2023-04-03T23:42:20;98719.69;;;3.20;59.67
22181;BME280;11256;50.830;12.834;2023-04-03T23:47:21;98722.34;;;3.20;59.88
22181;BME280;11256;50.830;12.834;2023-04-03T23:52:21;98716.81;;;3.21;59.85
22181;BME280;11256;50.830;12.834;2023-04-03T23:57:21;98695.81;;;3.12;60.45
